createdAt,value
2023-02-19T00:01:13.689Z,100521.78
2023-02-19T00:04:17.401Z,100521.44
2023-02-19T00:07:19.686Z,100519.25
2023-02-19T00:10:22.534Z,100513.62
2023-02-19T00:13:24.974Z,100530.28
2023-02-19T00:16:28.828Z,100522.41
2023-02-19T00:19:31.250Z,100523.34
2023-02-19T00:22:33.887Z,100524.28
2023-02-19T00:25:37.820Z,100525.94
2023-02-19T00:28:40.410Z,100517.47
2023-02-19T00:31:46.125Z,100509.88
2023-02-19T00:34:48.881Z,100509.88
2023-02-19T00:37:51.278Z,100510.38
2023-02-19T00:40:54.048Z,100503.59
2023-02-19T00:43:59.617Z,100508.25
2023-02-19T00:47:02.214Z,100509.84
2023-02-19T00:50:06.435Z,100508.97
2023-02-19T00:53:09.717Z,100510.69
2023-02-19T00:56:12.184Z,100518.56
2023-02-19T00:59:15.007Z,100517.25
2023-02-19T01:02:17.371Z,100521.09
2023-02-19T01:05:20.031Z,100515.66
2023-02-19T01:08:22.722Z,100522.53
2023-02-19T01:11:25.461Z,100520.47
2023-02-19T01:14:28.105Z,100515.56
2023-02-19T01:17:30.724Z,100510.53
2023-02-19T01:20:37.842Z,100503.84
2023-02-19T01:23:41.168Z,100500.56
2023-02-19T01:26:43.668Z,100501.84
2023-02-19T01:29:46.361Z,100509.56
2023-02-19T01:32:48.944Z,100498.13
2023-02-19T01:35:53.299Z,100510.12
2023-02-19T01:38:55.957Z,100499.41
2023-02-19T01:41:58.654Z,100514.06
2023-02-19T01:45:21.267Z,100505.06
2023-02-19T01:48:26.517Z,100508.66
2023-02-19T01:51:30.854Z,100508.25
2023-02-19T01:54:36.009Z,100509.34
2023-02-19T01:57:41.977Z,100497.16
2023-02-19T02:00:44.814Z,100504.22
2023-02-19T02:03:48.881Z,100506.13
2023-02-19T02:06:56.493Z,100500.22
2023-02-19T02:10:17.960Z,100494.13
2023-02-19T02:13:20.685Z,100484.22
2023-02-19T02:16:23.021Z,100483.72
2023-02-19T02:19:25.871Z,100487.25
2023-02-19T02:22:32.548Z,100482.50
2023-02-19T02:25:55.542Z,100450.72
2023-02-19T02:29:01.482Z,100460.31
2023-02-19T02:32:25.025Z,100454.97
2023-02-19T02:35:32.964Z,100456.06
2023-02-19T02:38:39.392Z,100457.16
2023-02-19T02:41:45.934Z,100457.87
2023-02-19T02:45:07.335Z,100455.62
2023-02-19T02:48:24.163Z,100473.84
2023-02-19T02:51:29.178Z,100480.09
2023-02-19T02:54:52.519Z,100471.75
2023-02-19T02:57:55.631Z,100474.66
2023-02-19T03:01:19.784Z,100488.69
2023-02-19T03:04:27.933Z,100500.75
2023-02-19T03:07:34.744Z,100489.91
2023-02-19T03:10:37.700Z,100499.47
2023-02-19T03:13:59.183Z,100492.75
2023-02-19T03:17:37.468Z,100491.81
2023-02-19T03:20:43.701Z,100497.38
2023-02-19T03:24:05.881Z,100486.28
2023-02-19T03:27:10.487Z,100481.88
2023-02-19T03:30:20.398Z,100494.72
2023-02-19T03:33:26.525Z,100498.44
2023-02-19T03:36:34.931Z,100502.69
2023-02-19T03:39:44.327Z,100491.81
2023-02-19T03:42:55.079Z,100488.47
2023-02-19T03:46:06.668Z,100504.22
2023-02-19T03:49:18.288Z,100501.13
2023-02-19T03:52:25.072Z,100507.25
2023-02-19T03:55:32.661Z,100522.34
2023-02-19T03:58:40.234Z,100524.78
2023-02-19T04:01:52.880Z,100509.47
2023-02-19T04:05:03.608Z,100509.41
2023-02-19T04:08:17.288Z,100509.50
2023-02-19T04:11:22.428Z,100497.34
2023-02-19T04:14:51.313Z,100502.75
2023-02-19T04:17:59.427Z,100497.44
2023-02-19T04:21:02.783Z,100494.34
2023-02-19T04:24:12.165Z,100501.91
2023-02-19T04:27:14.850Z,100504.75
2023-02-19T04:30:19.779Z,100505.97
2023-02-19T04:33:22.123Z,100505.28
2023-02-19T04:36:24.694Z,100511.78
2023-02-19T04:39:27.297Z,100511.66
2023-02-19T04:42:30.356Z,100492.31
2023-02-19T04:45:32.790Z,100503.81
2023-02-19T04:48:35.452Z,100506.19
2023-02-19T04:51:38.558Z,100495.16
2023-02-19T04:54:41.281Z,100505.25
2023-02-19T04:57:43.690Z,100502.97
2023-02-19T05:00:46.642Z,100497.56
2023-02-19T05:03:49.474Z,100484.13
2023-02-19T05:06:52.164Z,100493.72
2023-02-19T05:09:54.792Z,100489.13
2023-02-19T05:12:58.110Z,100490.66
2023-02-19T05:16:01.837Z,100475.53
2023-02-19T05:19:04.484Z,100487.31
2023-02-19T05:22:06.848Z,100494.37
2023-02-19T05:25:09.490Z,100496.66
2023-02-19T05:28:17.605Z,100492.41
2023-02-19T05:31:21.310Z,100496.06
2023-02-19T05:34:23.768Z,100500.34
2023-02-19T05:37:26.577Z,100504.31
2023-02-19T05:40:29.303Z,100493.66
2023-02-19T05:43:32.038Z,100498.03
2023-02-19T05:46:34.483Z,100491.13
2023-02-19T05:49:37.219Z,100485.78
2023-02-19T05:52:39.660Z,100491.19
2023-02-19T05:55:42.290Z,100497.97
2023-02-19T05:58:45.063Z,100500.44
2023-02-19T06:01:48.383Z,100490.97
2023-02-19T06:04:50.934Z,100500.22
2023-02-19T06:07:53.351Z,100514.81
2023-02-19T06:10:56.013Z,100513.00
2023-02-19T06:13:58.438Z,100518.16
2023-02-19T06:17:01.204Z,100513.47
2023-02-19T06:20:05.086Z,100504.31
2023-02-19T06:23:07.792Z,100492.53
2023-02-19T06:26:16.017Z,100489.22
2023-02-19T06:29:18.661Z,100475.62
2023-02-19T06:32:21.150Z,100473.22
2023-02-19T06:35:23.882Z,100480.31
2023-02-19T06:38:26.782Z,100485.59
2023-02-19T06:41:29.411Z,100478.75
2023-02-19T06:44:31.926Z,100467.47
2023-02-19T06:47:34.678Z,100465.75
2023-02-19T06:50:37.064Z,100463.78
2023-02-19T06:53:40.052Z,100473.84
2023-02-19T06:56:42.607Z,100491.75
2023-02-19T06:59:45.894Z,100485.09
2023-02-19T07:02:48.340Z,100466.19
2023-02-19T07:05:51.005Z,100465.25
2023-02-19T07:08:54.586Z,100484.41
2023-02-19T07:11:57.261Z,100484.09
2023-02-19T07:14:59.694Z,100485.81
2023-02-19T07:18:02.441Z,100487.34
2023-02-19T07:21:06.188Z,100483.56
2023-02-19T07:24:10.298Z,100470.94
2023-02-19T07:27:12.822Z,100484.66
2023-02-19T07:30:15.581Z,100464.37
2023-02-19T07:33:18.102Z,100479.38
2023-02-19T07:36:21.837Z,100472.00
2023-02-19T07:39:24.232Z,100465.19
2023-02-19T07:42:26.831Z,100459.81
2023-02-19T07:45:29.648Z,100446.63
2023-02-19T07:48:32.538Z,100458.53
2023-02-19T07:51:34.898Z,100453.97
2023-02-19T07:54:37.741Z,100463.53
2023-02-19T07:57:40.107Z,100467.25
2023-02-19T08:00:42.866Z,100473.63
2023-02-19T08:03:46.226Z,100470.72
2023-02-19T08:06:49.772Z,100476.72
2023-02-19T08:10:12.306Z,100479.31
2023-02-19T08:13:27.951Z,100483.38
2023-02-19T08:16:42.554Z,100494.84
2023-02-19T08:19:45.739Z,100496.41
2023-02-19T08:22:48.606Z,100496.84
2023-02-19T08:25:51.736Z,100503.50
2023-02-19T08:28:54.671Z,100504.06
2023-02-19T08:31:57.126Z,100503.88
2023-02-19T08:34:59.713Z,100510.25
2023-02-19T08:38:02.673Z,100518.25
2023-02-19T08:41:10.629Z,100509.78
2023-02-19T08:44:13.625Z,100512.88
2023-02-19T08:47:16.312Z,100485.03
2023-02-19T08:50:18.868Z,100481.97
2023-02-19T08:53:21.972Z,100482.34
2023-02-19T08:56:24.346Z,100487.72
2023-02-19T08:59:28.559Z,100484.44
2023-02-19T09:02:31.318Z,100483.00
2023-02-19T09:05:33.914Z,100489.06
2023-02-19T09:08:36.186Z,100493.03
2023-02-19T09:11:39.340Z,100486.97
2023-02-19T09:14:41.800Z,100492.38
2023-02-19T09:17:44.483Z,100493.47
2023-02-19T09:20:46.932Z,100478.22
2023-02-19T09:23:49.645Z,100480.97
2023-02-19T09:26:53.294Z,100483.78
2023-02-19T09:29:56.107Z,100488.81
2023-02-19T09:32:58.508Z,100493.81
2023-02-19T09:36:01.618Z,100477.84
2023-02-19T09:39:06.592Z,100476.66
2023-02-19T09:42:12.786Z,100463.59
2023-02-19T09:45:26.142Z,100469.28
2023-02-19T09:48:29.038Z,100465.09
2023-02-19T09:51:32.742Z,100460.31
2023-02-19T09:54:37.225Z,100457.31
2023-02-19T09:57:40.217Z,100446.19
2023-02-19T10:00:42.986Z,100436.53
2023-02-19T10:03:48.022Z,100438.75
2023-02-19T10:06:51.487Z,100425.88
2023-02-19T10:09:59.390Z,100428.25
2023-02-19T10:13:13.160Z,100414.44
2023-02-19T10:16:17.690Z,100401.88
2023-02-19T10:19:20.047Z,100407.66
2023-02-19T10:22:23.028Z,100406.41
2023-02-19T10:25:25.313Z,100388.94
2023-02-19T10:28:33.619Z,100382.69
2023-02-19T10:31:36.019Z,100372.87
2023-02-19T10:34:38.946Z,100374.59
2023-02-19T10:37:48.877Z,100360.25
2023-02-19T10:40:57.181Z,100350.47
2023-02-19T10:44:16.277Z,100364.44
2023-02-19T10:47:22.614Z,100331.31
2023-02-19T10:50:27.162Z,100337.78
2023-02-19T10:53:39.774Z,100339.84
2023-02-19T10:56:42.319Z,100327.19
2023-02-19T10:59:53.129Z,100319.22
2023-02-19T11:03:14.167Z,100316.25
2023-02-19T11:06:18.530Z,100324.44
2023-02-19T11:09:24.045Z,100308.31
2023-02-19T11:12:30.894Z,100294.78
2023-02-19T11:15:34.593Z,100291.44
2023-02-19T11:18:37.900Z,100288.37
2023-02-19T11:21:40.407Z,100298.69
2023-02-19T11:24:47.874Z,100317.69
2023-02-19T11:27:54.503Z,100290.84
2023-02-19T11:31:13.218Z,100277.53
2023-02-19T11:34:21.107Z,100274.53
2023-02-19T11:37:23.736Z,100274.22
2023-02-19T11:40:32.756Z,100280.44
2023-02-19T11:43:53.815Z,100268.84
2023-02-19T11:47:15.122Z,100272.03
2023-02-19T11:50:36.837Z,100267.00
2023-02-19T11:53:47.080Z,100263.13
2023-02-19T11:57:11.678Z,100261.19
2023-02-19T12:00:27.014Z,100263.19
2023-02-19T12:03:42.096Z,100244.47
2023-02-19T12:06:53.542Z,100245.66
2023-02-19T12:10:05.651Z,100261.31
2023-02-19T12:13:28.049Z,100244.63
2023-02-19T12:16:52.609Z,100267.09
2023-02-19T12:20:24.516Z,100240.03
2023-02-19T12:23:39.000Z,100236.53
2023-02-19T12:26:41.312Z,100238.16
2023-02-19T12:29:49.814Z,100230.41
2023-02-19T12:32:55.213Z,100229.66
2023-02-19T12:36:00.953Z,100235.00
2023-02-19T12:39:12.157Z,100241.22
2023-02-19T12:42:33.488Z,100261.53
2023-02-19T12:45:36.167Z,100250.72
2023-02-19T12:48:39.301Z,100264.09
2023-02-19T12:51:47.112Z,100292.09
2023-02-19T12:54:54.171Z,100264.34
2023-02-19T12:58:01.433Z,100276.75
2023-02-19T13:01:05.569Z,100266.22
2023-02-19T13:04:12.540Z,100279.50
2023-02-19T13:07:27.886Z,100287.66
2023-02-19T13:10:30.781Z,100282.78
2023-02-19T13:13:33.478Z,100270.34
2023-02-19T13:16:39.394Z,100275.31
2023-02-19T13:19:42.821Z,100259.69
2023-02-19T13:23:07.466Z,100279.06
2023-02-19T13:26:29.773Z,100288.53
2023-02-19T13:29:32.134Z,100285.66
2023-02-19T13:32:37.874Z,100309.75
2023-02-19T13:36:01.351Z,100281.69
2023-02-19T13:39:07.472Z,100278.34
2023-02-19T13:42:23.501Z,100274.03
2023-02-19T13:45:29.174Z,100292.44
2023-02-19T13:48:36.082Z,100298.37
2023-02-19T13:51:39.289Z,100284.94
2023-02-19T13:54:41.750Z,100284.41
2023-02-19T13:57:44.929Z,100291.22
2023-02-19T14:00:51.721Z,100299.16
2023-02-19T14:04:09.841Z,100298.37
2023-02-19T14:07:12.451Z,100310.56
2023-02-19T14:10:35.381Z,100339.06
2023-02-19T14:13:50.742Z,100342.47
2023-02-19T14:17:05.652Z,100347.66
2023-02-19T14:20:09.199Z,100352.00
2023-02-19T14:23:16.507Z,100362.59
2023-02-19T14:26:19.310Z,100354.38
2023-02-19T14:29:22.703Z,100377.88
2023-02-19T14:32:26.000Z,100388.69
2023-02-19T14:35:36.330Z,100389.56
2023-02-19T14:38:44.596Z,100402.56
2023-02-19T14:41:57.488Z,100403.84
2023-02-19T14:45:03.018Z,100425.72
2023-02-19T14:48:06.356Z,100412.44
2023-02-19T14:51:35.045Z,100409.47
2023-02-19T14:54:38.652Z,100409.19
2023-02-19T14:57:43.726Z,100406.50
2023-02-19T15:00:47.171Z,100402.56
2023-02-19T15:03:49.661Z,100409.91
2023-02-19T15:06:56.660Z,100414.06
2023-02-19T15:10:04.942Z,100409.47
2023-02-19T15:13:12.092Z,100410.94
2023-02-19T15:16:18.798Z,100419.22
2023-02-19T15:19:22.425Z,100424.13
2023-02-19T15:22:26.026Z,100425.12
2023-02-19T15:25:36.955Z,100434.84
2023-02-19T15:28:39.313Z,100411.38
2023-02-19T15:32:00.944Z,100411.38
2023-02-19T15:35:04.500Z,100410.63
2023-02-19T15:38:12.493Z,100394.50
2023-02-19T15:41:19.763Z,100390.25
2023-02-19T15:44:28.642Z,100387.78
2023-02-19T15:47:37.840Z,100387.25
2023-02-19T15:50:44.159Z,100390.91
2023-02-19T15:53:54.140Z,100405.63
2023-02-19T15:56:59.472Z,100404.62
2023-02-19T16:00:07.164Z,100422.12
2023-02-19T16:03:17.857Z,100426.59
2023-02-19T16:06:21.999Z,100449.97
2023-02-19T16:09:32.031Z,100439.59
2023-02-19T16:12:34.977Z,100440.59
2023-02-19T16:15:39.470Z,100443.44
2023-02-19T16:18:46.694Z,100433.97
2023-02-19T16:21:49.758Z,100453.75
2023-02-19T16:24:54.904Z,100452.16
2023-02-19T16:27:57.897Z,100470.34
2023-02-19T16:31:02.276Z,100474.37
2023-02-19T16:34:37.093Z,100485.81
2023-02-19T16:37:41.173Z,100494.84
2023-02-19T16:40:50.888Z,100501.56
2023-02-19T16:43:53.790Z,100504.91
2023-02-19T16:47:04.748Z,100503.28
2023-02-19T16:50:13.327Z,100492.41
2023-02-19T16:53:24.919Z,100482.09
2023-02-19T16:56:27.852Z,100493.44
2023-02-19T16:59:30.911Z,100495.06
2023-02-19T17:02:34.913Z,100498.69
2023-02-19T17:05:38.632Z,100502.28
2023-02-19T17:08:42.393Z,100520.59
2023-02-19T17:11:45.113Z,100530.16
2023-02-19T17:14:47.957Z,100524.97
2023-02-19T17:17:50.725Z,100523.38
2023-02-19T17:21:02.595Z,100528.59
2023-02-19T17:24:05.359Z,100517.59
2023-02-19T17:27:10.538Z,100509.84
2023-02-19T17:30:15.611Z,100520.59
2023-02-19T17:33:20.276Z,100536.16
2023-02-19T17:36:26.670Z,100533.69
2023-02-19T17:39:29.587Z,100532.00
2023-02-19T17:42:32.197Z,100533.97
2023-02-19T17:45:35.158Z,100545.28
2023-02-19T17:48:37.576Z,100569.47
2023-02-19T17:51:44.037Z,100558.13
2023-02-19T17:54:46.788Z,100556.34
2023-02-19T17:57:50.785Z,100569.66
2023-02-19T18:00:53.675Z,100571.78
2023-02-19T18:03:56.480Z,100561.69
2023-02-19T18:06:59.133Z,100576.31
2023-02-19T18:10:02.884Z,100593.22
2023-02-19T18:13:07.430Z,100594.31
2023-02-19T18:16:10.528Z,100601.75
2023-02-19T18:19:13.217Z,100612.12
2023-02-19T18:22:16.816Z,100619.91
2023-02-19T18:25:19.882Z,100615.69
2023-02-19T18:28:23.042Z,100634.63
2023-02-19T18:31:25.900Z,100644.00
2023-02-19T18:34:28.869Z,100642.38
2023-02-19T18:37:32.890Z,100651.97
2023-02-19T18:40:36.148Z,100667.63
2023-02-19T18:43:40.192Z,100672.00
2023-02-19T18:46:43.056Z,100685.19
2023-02-19T18:49:49.273Z,100685.19
2023-02-19T18:52:53.199Z,100690.56
2023-02-19T18:55:56.965Z,100708.00
2023-02-19T18:59:00.418Z,100722.81
2023-02-19T19:02:06.337Z,100729.94
2023-02-19T19:05:09.010Z,100727.41
2023-02-19T19:08:11.499Z,100729.72
2023-02-19T19:11:14.615Z,100734.97
2023-02-19T19:14:17.338Z,100730.59
2023-02-19T19:17:19.987Z,100716.00
2023-02-19T19:20:23.311Z,100734.06
2023-02-19T19:23:26.377Z,100719.28
2023-02-19T19:26:28.970Z,100720.19
2023-02-19T19:29:32.049Z,100711.63
2023-02-19T19:32:34.822Z,100709.09
2023-02-19T19:35:37.879Z,100697.91
2023-02-19T19:38:41.326Z,100707.41
2023-02-19T19:41:44.380Z,100710.16
2023-02-19T19:44:47.230Z,100712.88
2023-02-19T19:47:50.164Z,100729.19
2023-02-19T19:50:54.863Z,100719.59
2023-02-19T19:53:58.440Z,100735.09
2023-02-19T19:57:01.069Z,100738.47
2023-02-19T20:00:05.231Z,100744.53
2023-02-19T20:03:17.861Z,100737.53
2023-02-19T20:06:25.715Z,100745.31
2023-02-19T20:09:29.146Z,100776.34
2023-02-19T20:12:32.412Z,100784.97
2023-02-19T20:15:35.137Z,100791.94
2023-02-19T20:18:38.353Z,100810.13
2023-02-19T20:21:44.261Z,100823.87
2023-02-19T20:24:51.590Z,100833.44
2023-02-19T20:27:54.425Z,100840.31
2023-02-19T20:30:57.589Z,100853.25
2023-02-19T20:34:00.517Z,100851.59
2023-02-19T20:37:03.127Z,100862.81
2023-02-19T20:40:06.158Z,100887.97
2023-02-19T20:43:09.192Z,100879.38
2023-02-19T20:46:12.375Z,100895.88
2023-02-19T20:49:16.678Z,100900.31
2023-02-19T20:52:20.857Z,100908.97
2023-02-19T20:55:24.904Z,100903.94
2023-02-19T20:58:27.589Z,100917.84
2023-02-19T21:01:30.531Z,100921.47
2023-02-19T21:04:33.514Z,100928.53
2023-02-19T21:07:36.354Z,100917.44
2023-02-19T21:10:39.117Z,100927.84
2023-02-19T21:13:42.653Z,100939.03
2023-02-19T21:16:45.546Z,100942.63
2023-02-19T21:19:50.236Z,100945.31
2023-02-19T21:22:52.879Z,100941.09
2023-02-19T21:25:55.777Z,100948.09
2023-02-19T21:28:58.365Z,100949.94
2023-02-19T21:32:01.323Z,100957.78
2023-02-19T21:35:04.205Z,100957.88
2023-02-19T21:38:07.097Z,100962.16
2023-02-19T21:41:09.510Z,100973.41
2023-02-19T21:44:12.460Z,100974.25
2023-02-19T21:47:14.830Z,100963.97
2023-02-19T21:50:20.245Z,100970.84
2023-02-19T21:53:22.897Z,100974.31
2023-02-19T21:56:29.433Z,100979.53
2023-02-19T21:59:31.840Z,100973.56
2023-02-19T22:02:34.603Z,100976.13
2023-02-19T22:05:37.314Z,100980.44
2023-02-19T22:08:39.649Z,100964.12
2023-02-19T22:11:42.524Z,100969.28
2023-02-19T22:14:45.239Z,100979.59
2023-02-19T22:17:47.912Z,100980.47
2023-02-19T22:20:50.314Z,100978.75
2023-02-19T22:23:53.649Z,100982.22
2023-02-19T22:26:56.714Z,100989.94
2023-02-19T22:29:59.369Z,100989.97
2023-02-19T22:33:01.767Z,100998.59
2023-02-19T22:36:04.576Z,100996.87
2023-02-19T22:39:07.848Z,101004.62
2023-02-19T22:42:10.745Z,101010.66
2023-02-19T22:45:13.755Z,101008.09
2023-02-19T22:48:28.376Z,101026.16
2023-02-19T22:51:32.649Z,101030.47
2023-02-19T22:54:36.180Z,101024.44
2023-02-19T22:57:38.523Z,101033.91
2023-02-19T23:00:42.363Z,101024.44
2023-02-19T23:03:52.533Z,101039.88
2023-02-19T23:06:55.238Z,101040.75
2023-02-19T23:09:57.584Z,101058.78
2023-02-19T23:13:00.477Z,101057.94
2023-02-19T23:16:04.722Z,101082.88
2023-02-19T23:19:11.385Z,101074.28
2023-02-19T23:22:13.724Z,101073.41
2023-02-19T23:25:16.415Z,101082.88
2023-02-19T23:28:18.826Z,101085.47
2023-02-19T23:31:21.651Z,101094.03
2023-02-19T23:34:24.533Z,101100.91
2023-02-19T23:37:27.122Z,101109.47
2023-02-19T23:40:29.580Z,101110.34
2023-02-19T23:43:32.244Z,101107.78
2023-02-19T23:46:35.002Z,101112.91
2023-02-19T23:49:38.101Z,101124.06
2023-02-19T23:52:40.500Z,101132.66
2023-02-19T23:55:43.273Z,101136.06
2023-02-19T23:58:45.604Z,101134.31
